LTAU/ASR METAR and TAF weather

Enter ICAO airport designator
Station Type Date Time Source
LTAU METAR 2020/06/03 16:50 UTC NOAA

LTAU 031650Z 01002KT 9999 SCT040 19/06 Q1011 NOSIG


Station Type Date Time Source
LTAU Decoded METAR 2020/06/03 16:50 UTC NOAA

Kayseri / Erkilet, Turkey (LTAU) 38-47N 035-29E 1054M
Jun 03, 2020 - 12:50 PM EDT / 2020.06.03 1650 UTC
Wind: from the N (010 degrees) at 2 MPH (2 KT):0
Visibility: greater than 7 mile(s):0
Sky conditions: partly cloudy
Temperature: 66 F (19 C)
Dew Point: 42 F (6 C)
Relative Humidity: 42%
Pressure (altimeter): 29.85 in. Hg (1011 hPa)
ob: LTAU 031650Z 01002KT 9999 SCT040 19/06 Q1011 NOSIG
cycle: 17

Station Type Date Time Source
LTAU TAF 2020/06/03 18:03 UTC NOAA

TAF LTAU 031640Z 0318/0418 VRB02KT 9999 SCT040
TEMPO 0319/0323 -SHRA FEW027CB BKN035
TEMPO 0403/0407 -SHRA FEW025CB BKN033
BECMG 0407/0409 27012KT
TEMPO 0409/0413 27015G30KT -TSRA FEW025CB BKN030
TEMPO 0414/0418 29015G30KT -TSRA FEW025CB BKN030

Example: see airport list